Time;durP1;ratioP1;P1;durP2;ratioP2;P2;SDS_P1;SDS_P2;PMS_P1;PMS_P2;Temp;Humidity;BMP_temperature;BMP_pressure;BME280_temperature;BME280_humidity;BME280_pressure;Samples;Min_cycle;Max_cycle;Signal;HPM_P1;HPM_P2
2023/03/08 00:00:58;;;;;;;18.47;10.97;;;4.40;99.90;;;;;;5057810;28;20476;-50
2023/03/08 00:03:26;;;;;;;14.40;10.67;;;4.20;99.90;;;;;;5050765;28;20485;-48
2023/03/08 00:05:53;;;;;;;14.80;10.30;;;3.80;99.90;;;;;;5051426;28;20543;-47
2023/03/08 00:08:25;;;;;;;20.47;13.23;;;3.70;99.90;;;;;;5051189;28;20814;-48
2023/03/08 00:10:51;;;;;;;16.27;11.33;;;3.70;99.90;;;;;;5050674;28;20865;-47
2023/03/08 00:13:18;;;;;;;15.07;11.57;;;3.40;99.90;;;;;;5050883;28;20898;-48
2023/03/08 00:15:45;;;;;;;13.97;11.20;;;3.30;99.90;;;;;;5050674;28;20568;-47
2023/03/08 00:18:12;;;;;;;15.70;10.63;;;3.10;99.90;;;;;;5050848;28;20881;-47
2023/03/08 00:20:39;;;;;;;17.47;11.23;;;3.20;99.90;;;;;;5050595;28;20523;-47
2023/03/08 00:23:06;;;;;;;14.20;10.77;;;3.00;99.90;;;;;;5066609;28;20475;-48
2023/03/08 00:25:34;;;;;;;13.33;9.40;;;3.20;99.90;;;;;;5070585;28;20500;-49
2023/03/08 00:28:01;;;;;;;15.77;10.20;;;3.40;99.90;;;;;;5070919;28;20491;-50
2023/03/08 00:30:28;;;;;;;17.30;10.80;;;3.40;99.90;;;;;;5070864;28;20452;-49
2023/03/08 00:32:55;;;;;;;16.03;11.47;;;3.10;99.90;;;;;;5071173;28;20442;-48
2023/03/08 00:35:22;;;;;;;17.67;12.50;;;2.80;99.90;;;;;;5060141;28;20506;-49
2023/03/08 00:37:49;;;;;;;16.73;11.73;;;2.90;99.90;;;;;;5050750;28;20542;-47
2023/03/08 00:40:16;;;;;;;20.77;13.10;;;3.10;99.90;;;;;;5050362;28;20491;-49
2023/03/08 00:42:44;;;;;;;16.20;10.67;;;3.30;99.90;;;;;;5050643;28;20482;-48
2023/03/08 00:45:11;;;;;;;16.90;11.67;;;3.60;99.90;;;;;;5050781;28;20459;-48
2023/03/08 00:47:38;;;;;;;14.47;9.70;;;3.80;99.90;;;;;;5050793;28;20522;-47
2023/03/08 00:50:06;;;;;;;15.87;9.60;;;3.90;99.90;;;;;;5050392;28;20487;-48
2023/03/08 00:52:33;;;;;;;14.47;11.00;;;3.90;99.90;;;;;;5050534;28;20532;-48
2023/03/08 00:55:00;;;;;;;18.03;10.83;;;3.90;99.90;;;;;;5050625;28;20930;-50
2023/03/08 00:57:27;;;;;;;15.57;10.20;;;3.20;99.90;;;;;;5051377;28;20483;-47
2023/03/08 00:59:55;;;;;;;15.33;10.97;;;3.40;99.90;;;;;;5050454;28;20465;-47
2023/03/08 01:02:22;;;;;;;18.90;11.97;;;3.30;99.90;;;;;;5050412;28;20534;-48
2023/03/08 01:04:49;;;;;;;13.63;9.67;;;3.60;99.90;;;;;;5050671;28;21054;-48
2023/03/08 01:07:16;;;;;;;15.13;10.87;;;3.70;99.90;;;;;;5062019;28;20518;-47
2023/03/08 01:09:43;;;;;;;15.70;10.33;;;3.50;99.90;;;;;;5073989;28;20468;-47
2023/03/08 01:12:10;;;;;;;18.67;11.23;;;3.50;99.90;;;;;;5074161;28;20816;-47
2023/03/08 01:14:37;;;;;;;15.20;10.13;;;3.50;99.90;;;;;;5073861;28;20562;-48
2023/03/08 01:17:06;;;;;;;23.70;11.30;;;3.60;99.90;;;;;;5073678;28;20463;-48
2023/03/08 01:19:33;;;;;;;16.90;11.20;;;3.60;99.90;;;;;;5073385;28;21010;-48
2023/03/08 01:21:59;;;;;;;17.00;12.17;;;3.70;99.90;;;;;;5070919;28;20464;-49
2023/03/08 01:24:26;;;;;;;16.00;11.20;;;3.80;99.90;;;;;;5053693;28;20484;-47
2023/03/08 01:26:54;;;;;;;19.90;11.73;;;3.70;99.90;;;;;;5053741;28;20544;-48
2023/03/08 01:29:21;;;;;;;15.30;10.33;;;3.50;99.90;;;;;;5053604;28;20970;-47
2023/03/08 01:31:48;;;;;;;16.63;9.50;;;3.40;99.90;;;;;;5053272;28;21038;-47
2023/03/08 01:34:16;;;;;;;15.17;10.27;;;3.50;99.90;;;;;;5053617;28;20528;-47
2023/03/08 01:36:43;;;;;;;14.60;9.90;;;3.50;99.90;;;;;;5053400;28;20936;-47
2023/03/08 01:39:10;;;;;;;14.43;10.33;;;3.20;99.90;;;;;;5053349;28;21025;-47
2023/03/08 01:41:37;;;;;;;13.03;9.23;;;2.80;99.90;;;;;;5052949;28;20548;-49
2023/03/08 01:44:04;;;;;;;16.27;9.90;;;2.90;99.90;;;;;;5052982;28;20471;-48
2023/03/08 01:46:32;;;;;;;14.03;9.93;;;3.10;99.90;;;;;;5053056;28;20540;-48
2023/03/08 01:49:05;;;;;;;15.80;9.80;;;3.20;99.90;;;;;;5053046;28;21016;-48
2023/03/08 01:51:37;;;;;;;13.70;10.63;;;3.20;99.90;;;;;;5053167;28;20535;-47
2023/03/08 01:54:07;;;;;;;17.87;10.90;;;3.30;99.90;;;;;;5053110;28;20445;-47
2023/03/08 01:56:36;;;;;;;12.03;9.40;;;3.30;99.90;;;;;;5069695;28;20566;-47
2023/03/08 01:59:04;;;;;;;14.90;10.43;;;3.20;99.90;;;;;;5072961;28;20533;-48
2023/03/08 02:01:33;;;;;;;17.37;10.97;;;3.30;99.90;;;;;;5072878;28;20523;-48
2023/03/08 02:04:00;;;;;;;17.10;11.00;;;3.30;99.90;;;;;;5073063;28;20518;-48
2023/03/08 02:06:28;;;;;;;12.23;9.40;;;3.30;99.90;;;;;;5072971;28;20558;-48
2023/03/08 02:08:57;;;;;;;15.80;11.00;;;3.30;99.90;;;;;;5072696;28;20535;-47
2023/03/08 02:11:25;;;;;;;15.03;10.63;;;3.40;99.90;;;;;;5071932;28;20475;-48
2023/03/08 02:13:54;;;;;;;19.07;10.50;;;3.40;99.90;;;;;;5059313;28;20528;-50
2023/03/08 02:16:22;;;;;;;15.57;10.30;;;3.50;99.90;;;;;;5052353;28;20535;-48
2023/03/08 02:18:54;;;;;;;18.17;11.27;;;3.40;99.90;;;;;;5052961;28;20462;-48
2023/03/08 02:21:20;;;;;;;13.50;10.47;;;3.40;99.90;;;;;;5072102;28;20530;-48
2023/03/08 02:23:49;;;;;;;13.70;9.50;;;3.40;99.90;;;;;;5072406;28;20486;-47
2023/03/08 02:26:16;;;;;;;14.60;10.93;;;3.40;99.90;;;;;;5069197;28;20550;-47
2023/03/08 02:28:44;;;;;;;15.73;10.80;;;3.30;99.90;;;;;;5033213;28;20540;-49
2023/03/08 02:31:13;;;;;;;13.30;10.80;;;3.30;99.90;;;;;;5071716;28;20984;-48
2023/03/08 02:33:40;;;;;;;14.70;10.10;;;3.40;99.90;;;;;;5061467;28;20531;-49
2023/03/08 02:36:09;;;;;;;19.93;10.77;;;3.40;99.90;;;;;;5052279;28;20924;-48
2023/03/08 02:38:36;;;;;;;14.10;10.00;;;3.40;99.90;;;;;;5052081;28;20437;-48
2023/03/08 02:41:05;;;;;;;18.57;10.90;;;3.40;99.90;;;;;;5055134;28;20483;-50
2023/03/08 02:43:32;;;;;;;16.17;11.03;;;3.40;99.90;;;;;;5071486;28;20467;-48
2023/03/08 02:45:59;;;;;;;13.17;10.50;;;3.50;99.90;;;;;;5071746;28;20488;-48
2023/03/08 02:48:25;;;;;;;19.07;11.27;;;3.40;99.90;;;;;;5071347;28;20478;-50
2023/03/08 02:50:52;;;;;;;15.70;9.97;;;3.30;99.90;;;;;;5053982;28;20532;-48
2023/03/08 02:53:19;;;;;;;17.83;11.27;;;3.50;99.90;;;;;;5055294;28;20468;-48
2023/03/08 02:55:46;;;;;;;14.93;10.77;;;3.40;99.90;;;;;;5065455;28;20516;-49
2023/03/08 02:58:14;;;;;;;18.87;11.63;;;3.10;99.90;;;;;;5051195;28;20482;-49
2023/03/08 03:00:41;;;;;;;14.43;9.53;;;3.10;99.90;;;;;;5063703;28;21022;-48
2023/03/08 03:03:08;;;;;;;14.40;10.20;;;3.10;99.90;;;;;;5051844;28;20495;-48
2023/03/08 03:05:35;;;;;;;16.30;10.50;;;3.30;99.90;;;;;;5051551;28;20551;-48
2023/03/08 03:08:02;;;;;;;12.67;10.23;;;3.50;99.90;;;;;;5059199;28;20552;-47
2023/03/08 03:10:29;;;;;;;15.97;11.50;;;3.60;99.90;;;;;;5057519;28;20461;-49
2023/03/08 03:12:56;;;;;;;15.53;11.43;;;3.50;99.90;;;;;;5051668;28;20526;-48
2023/03/08 03:15:24;;;;;;;18.00;11.83;;;3.50;99.90;;;;;;5058899;28;20542;-50
2023/03/08 03:17:51;;;;;;;16.37;10.33;;;3.60;99.90;;;;;;5070907;28;20535;-48
2023/03/08 03:20:18;;;;;;;14.33;11.27;;;3.60;99.90;;;;;;5067547;28;20496;-47
2023/03/08 03:22:46;;;;;;;14.83;10.63;;;3.60;99.90;;;;;;5071246;28;20530;-50
2023/03/08 03:25:13;;;;;;;17.07;11.77;;;3.70;99.90;;;;;;5052685;28;20469;-48
2023/03/08 03:27:40;;;;;;;15.23;9.80;;;3.60;99.90;;;;;;5031419;28;20532;-49
2023/03/08 03:30:08;;;;;;;14.97;10.30;;;3.60;99.90;;;;;;5041292;28;20538;-47
2023/03/08 03:32:37;;;;;;;14.17;10.83;;;3.60;99.90;;;;;;5051320;28;20532;-51
2023/03/08 03:35:04;;;;;;;14.40;10.00;;;3.70;99.90;;;;;;5059188;28;20531;-49
2023/03/08 03:37:32;;;;;;;14.63;9.77;;;3.70;99.90;;;;;;5071772;28;20563;-48
2023/03/08 03:39:59;;;;;;;16.10;10.30;;;3.70;99.90;;;;;;5070961;28;20446;-47
2023/03/08 03:42:26;;;;;;;18.60;11.40;;;3.40;99.90;;;;;;5071234;28;20535;-49
2023/03/08 03:44:53;;;;;;;14.60;10.90;;;3.50;99.90;;;;;;5069778;28;20527;-48
2023/03/08 03:47:20;;;;;;;15.50;11.43;;;3.50;99.90;;;;;;5071147;28;20503;-48
2023/03/08 03:49:48;;;;;;;11.17;9.60;;;3.40;99.90;;;;;;5071081;28;20531;-48
2023/03/08 03:52:15;;;;;;;15.67;10.93;;;3.40;99.90;;;;;;5071057;28;20534;-49
2023/03/08 03:54:42;;;;;;;15.93;10.90;;;3.20;99.90;;;;;;5071077;28;20530;-49
2023/03/08 03:57:08;;;;;;;14.27;9.67;;;3.00;99.90;;;;;;5070340;28;20579;-50
2023/03/08 03:59:35;;;;;;;15.67;10.70;;;2.80;99.90;;;;;;5066907;28;20936;-48
2023/03/08 04:02:02;;;;;;;17.57;10.90;;;2.60;99.90;;;;;;5061185;28;20525;-48
2023/03/08 04:04:29;;;;;;;15.47;10.57;;;2.70;99.90;;;;;;5070822;28;20874;-48
2023/03/08 04:06:57;;;;;;;14.10;10.50;;;2.80;99.90;;;;;;5070604;28;20536;-48
2023/03/08 04:09:24;;;;;;;14.83;11.47;;;3.00;99.90;;;;;;5071041;28;20479;-49
2023/03/08 04:11:51;;;;;;;18.93;11.30;;;2.70;99.90;;;;;;5070603;28;20470;-49
2023/03/08 04:14:18;;;;;;;15.13;11.10;;;2.80;99.90;;;;;;5071054;28;20468;-47
2023/03/08 04:16:45;;;;;;;16.03;10.40;;;2.40;99.90;;;;;;5070926;28;20570;-48
2023/03/08 04:19:13;;;;;;;16.17;10.73;;;2.40;99.90;;;;;;5068685;28;20476;-49
2023/03/08 04:21:40;;;;;;;14.80;9.90;;;2.70;99.90;;;;;;5050820;28;20558;-50
2023/03/08 04:24:09;;;;;;;13.20;10.07;;;2.70;99.90;;;;;;5050849;28;20477;-48
2023/03/08 04:26:36;;;;;;;18.53;12.17;;;2.80;99.90;;;;;;5062663;28;20998;-47
2023/03/08 04:29:05;;;;;;;20.87;12.70;;;2.50;99.90;;;;;;5070762;28;20446;-48
2023/03/08 04:31:34;;;;;;;22.10;15.03;;;2.80;99.90;;;;;;5063591;28;20459;-50
2023/03/08 04:34:02;;;;;;;21.43;12.77;;;2.90;99.90;;;;;;5051380;28;20445;-49
2023/03/08 04:36:29;;;;;;;14.73;10.57;;;3.00;99.90;;;;;;5050614;28;20868;-50
2023/03/08 04:38:56;;;;;;;13.97;10.03;;;3.00;99.90;;;;;;5050824;28;20486;-50
2023/03/08 04:41:25;;;;;;;14.50;9.77;;;3.00;99.90;;;;;;5053627;28;20935;-48
2023/03/08 04:43:53;;;;;;;14.93;10.57;;;3.00;99.90;;;;;;5054612;28;20871;-48
2023/03/08 04:46:21;;;;;;;11.90;9.00;;;2.80;99.90;;;;;;5058848;28;20547;-47
2023/03/08 04:48:51;;;;;;;14.57;10.83;;;2.90;99.90;;;;;;5074584;28;20517;-48
2023/03/08 04:51:18;;;;;;;13.90;10.43;;;2.80;99.90;;;;;;5074547;28;20895;-48
2023/03/08 04:53:46;;;;;;;18.23;11.07;;;2.90;99.90;;;;;;5074403;28;20542;-50
2023/03/08 04:56:14;;;;;;;17.83;11.67;;;2.70;99.90;;;;;;5073758;28;20531;-48
2023/03/08 04:58:43;;;;;;;15.93;11.60;;;2.50;99.90;;;;;;5073482;28;20482;-49
2023/03/08 05:01:12;;;;;;;16.50;10.33;;;2.30;99.90;;;;;;5065153;28;20478;-49
2023/03/08 05:03:39;;;;;;;13.53;9.73;;;2.30;99.90;;;;;;5054320;28;20527;-48
2023/03/08 05:06:06;;;;;;;14.27;10.03;;;2.40;99.90;;;;;;5055213;28;20498;-47
2023/03/08 05:08:33;;;;;;;16.93;11.37;;;2.40;99.90;;;;;;5053751;28;20490;-47
2023/03/08 05:11:01;;;;;;;15.90;11.07;;;2.30;99.90;;;;;;5053834;28;20897;-48
2023/03/08 05:13:30;;;;;;;16.27;11.60;;;1.90;99.90;;;;;;5053854;28;20478;-50
2023/03/08 05:15:58;;;;;;;19.63;13.20;;;1.40;99.90;;;;;;5053891;28;20562;-48
2023/03/08 05:18:25;;;;;;;21.07;14.27;;;1.10;99.90;;;;;;5053740;28;20944;-48
2023/03/08 05:20:56;;;;;;;16.23;13.67;;;1.30;99.90;;;;;;5053462;28;20520;-48
2023/03/08 05:23:24;;;;;;;18.30;12.30;;;1.20;99.90;;;;;;5053969;28;20454;-47
2023/03/08 05:25:55;;;;;;;18.93;14.17;;;0.90;99.90;;;;;;5053921;28;20557;-48
2023/03/08 05:28:22;;;;;;;18.20;13.10;;;1.00;99.90;;;;;;5053788;28;20533;-47
2023/03/08 05:30:50;;;;;;;16.47;11.30;;;1.10;99.90;;;;;;5053409;28;20529;-48
2023/03/08 05:33:18;;;;;;;18.50;13.20;;;1.30;99.90;;;;;;5059861;28;20480;-47
2023/03/08 05:35:53;;;;;;;16.00;11.80;;;1.30;99.90;;;;;;5067497;28;20539;-49
2023/03/08 05:38:20;;;;;;;13.90;10.90;;;1.20;99.90;;;;;;5068615;28;20990;-48
2023/03/08 05:40:47;;;;;;;16.00;10.17;;;1.40;99.90;;;;;;5062387;28;20449;-48
2023/03/08 05:43:14;;;;;;;16.37;12.77;;;1.90;99.90;;;;;;5052710;28;20465;-49
2023/03/08 05:45:41;;;;;;;19.00;12.83;;;2.00;99.90;;;;;;5039646;28;21047;-48
2023/03/08 05:48:08;;;;;;;17.67;11.87;;;2.10;99.90;;;;;;5054198;28;20479;-51
2023/03/08 05:50:37;;;;;;;23.30;14.30;;;2.30;99.90;;;;;;5068873;28;20532;-47
2023/03/08 05:53:04;;;;;;;18.53;13.37;;;2.30;99.90;;;;;;5070981;28;20460;-48
2023/03/08 05:55:31;;;;;;;18.47;11.57;;;2.40;99.90;;;;;;5066932;28;20939;-48
2023/03/08 05:57:58;;;;;;;17.20;12.17;;;2.30;99.90;;;;;;5054262;28;20568;-49
2023/03/08 06:00:26;;;;;;;18.03;12.70;;;2.30;99.90;;;;;;5064287;28;20513;-48
2023/03/08 06:02:53;;;;;;;24.03;13.90;;;2.40;99.90;;;;;;5053595;28;20444;-48
2023/03/08 06:05:19;;;;;;;18.20;12.93;;;2.50;99.90;;;;;;5059154;28;20550;-48
2023/03/08 06:07:48;;;;;;;19.33;12.60;;;2.60;99.90;;;;;;5061481;28;20474;-47
2023/03/08 06:10:15;;;;;;;16.03;11.00;;;2.60;99.90;;;;;;5068762;28;20547;-47
2023/03/08 06:12:42;;;;;;;16.27;11.57;;;2.60;99.90;;;;;;5071083;28;20486;-47
2023/03/08 06:15:11;;;;;;;18.60;12.70;;;2.70;99.90;;;;;;5062572;28;20498;-50
2023/03/08 06:17:37;;;;;;;19.83;12.50;;;2.70;99.90;;;;;;5056843;28;21021;-48
2023/03/08 06:20:05;;;;;;;18.60;12.50;;;2.80;99.90;;;;;;5061909;28;20474;-46
2023/03/08 06:22:32;;;;;;;20.90;14.83;;;2.80;99.90;;;;;;5062409;28;20521;-47
2023/03/08 06:25:00;;;;;;;16.63;12.23;;;2.70;99.90;;;;;;5062570;28;20520;-50
2023/03/08 06:27:27;;;;;;;23.53;15.93;;;2.80;99.90;;;;;;5062220;28;20966;-47
2023/03/08 06:29:54;;;;;;;21.33;15.07;;;2.30;99.90;;;;;;5070213;28;20524;-48
2023/03/08 06:32:21;;;;;;;31.53;26.13;;;2.40;99.90;;;;;;5054011;28;20478;-48
2023/03/08 06:34:48;;;;;;;24.40;16.53;;;2.50;99.90;;;;;;5051543;28;20473;-51
2023/03/08 06:37:15;;;;;;;20.30;15.03;;;2.50;99.90;;;;;;5052056;28;20514;-48
2023/03/08 06:39:42;;;;;;;18.57;13.83;;;1.70;99.90;;;;;;5051974;28;20492;-48
2023/03/08 06:42:10;;;;;;;17.60;12.70;;;1.80;99.90;;;;;;5051202;28;20538;-49
2023/03/08 06:44:37;;;;;;;19.83;13.87;;;2.20;99.90;;;;;;5054825;28;20476;-48
2023/03/08 06:47:04;;;;;;;18.87;12.13;;;2.50;99.90;;;;;;5058039;28;20548;-47
2023/03/08 06:49:31;;;;;;;21.93;13.77;;;2.10;99.90;;;;;;5062659;28;20528;-48
2023/03/08 06:51:58;;;;;;;15.17;11.70;;;1.50;99.90;;;;;;5070346;28;20484;-49
2023/03/08 06:54:25;;;;;;;17.80;11.90;;;1.40;99.90;;;;;;5070210;28;20525;-48
2023/03/08 06:56:51;;;;;;;16.33;11.80;;;1.60;99.90;;;;;;5071435;28;21003;-49
2023/03/08 06:59:21;;;;;;;19.00;11.80;;;1.80;99.90;;;;;;5070535;28;20498;-49
2023/03/08 07:01:48;;;;;;;16.97;11.93;;;2.10;99.90;;;;;;5071065;28;20847;-48
2023/03/08 07:04:16;;;;;;;18.23;12.93;;;2.50;99.90;;;;;;5071504;28;20476;-49
2023/03/08 07:06:43;;;;;;;21.27;13.40;;;2.70;99.90;;;;;;5071538;28;20508;-47
2023/03/08 07:09:12;;;;;;;20.77;14.73;;;2.80;99.90;;;;;;5071856;28;20537;-48
2023/03/08 07:11:38;;;;;;;20.13;13.67;;;2.90;99.90;;;;;;5069059;28;20446;-48
2023/03/08 07:14:06;;;;;;;21.53;13.80;;;3.00;99.90;;;;;;5070760;28;20874;-48
2023/03/08 07:16:34;;;;;;;22.13;16.10;;;3.10;99.90;;;;;;5071671;28;20466;-49
2023/03/08 07:19:02;;;;;;;21.10;16.40;;;3.00;99.90;;;;;;5071451;28;20475;-47
2023/03/08 07:21:29;;;;;;;22.93;15.47;;;3.00;99.90;;;;;;5071796;28;20466;-48
2023/03/08 07:23:56;;;;;;;24.77;15.27;;;3.00;99.90;;;;;;5071781;28;20481;-48
2023/03/08 07:26:23;;;;;;;20.07;13.87;;;2.90;99.90;;;;;;5071299;28;20523;-49
2023/03/08 07:28:50;;;;;;;16.93;13.20;;;3.10;99.90;;;;;;5071768;28;20515;-48
2023/03/08 07:31:17;;;;;;;19.27;13.70;;;3.20;99.90;;;;;;5071212;28;20448;-49
2023/03/08 07:33:45;;;;;;;21.13;14.77;;;3.10;99.90;;;;;;5071184;28;20529;-48
2023/03/08 07:36:12;;;;;;;22.60;16.97;;;3.20;99.90;;;;;;5071046;28;21054;-48
2023/03/08 07:38:39;;;;;;;21.90;14.60;;;3.30;99.90;;;;;;5071061;28;20966;-49
2023/03/08 07:41:06;;;;;;;18.37;14.27;;;3.40;99.90;;;;;;5070918;28;20522;-48
2023/03/08 07:43:33;;;;;;;22.57;14.60;;;3.50;99.90;;;;;;5070658;28;20538;-47
2023/03/08 07:46:02;;;;;;;19.23;14.30;;;3.50;99.90;;;;;;5071435;28;20501;-48
2023/03/08 07:48:29;;;;;;;22.43;13.93;;;3.40;99.90;;;;;;5070575;28;20533;-44
2023/03/08 07:51:02;;;;;;;17.93;14.63;;;3.10;99.90;;;;;;5070969;28;21005;-48
2023/03/08 07:53:29;;;;;;;17.40;13.40;;;3.30;99.90;;;;;;5070977;28;20816;-48
2023/03/08 07:55:57;;;;;;;16.53;12.17;;;3.60;99.90;;;;;;5071205;28;20476;-49
2023/03/08 07:58:24;;;;;;;16.73;12.57;;;3.70;99.90;;;;;;5070370;28;20561;-47
2023/03/08 08:00:51;;;;;;;18.50;12.13;;;3.70;99.90;;;;;;5070952;28;20539;-49
2023/03/08 08:03:18;;;;;;;19.40;13.17;;;3.80;99.90;;;;;;5071344;28;20441;-49
2023/03/08 08:05:45;;;;;;;18.87;13.33;;;3.70;99.90;;;;;;5071200;28;20498;-48
2023/03/08 08:08:14;;;;;;;16.70;11.77;;;3.80;99.90;;;;;;5070878;28;20475;-48
2023/03/08 08:10:41;;;;;;;19.57;14.00;;;3.90;99.90;;;;;;5070086;28;20485;-49
2023/03/08 08:13:08;;;;;;;15.00;11.00;;;3.90;99.90;;;;;;5071166;28;20530;-47
2023/03/08 08:15:35;;;;;;;23.70;13.53;;;4.00;99.90;;;;;;5072613;28;20517;-50
2023/03/08 08:18:03;;;;;;;16.87;12.33;;;3.90;99.90;;;;;;5074782;28;21067;-48
2023/03/08 08:20:30;;;;;;;16.80;13.63;;;4.00;99.90;;;;;;5074091;28;20543;-48
2023/03/08 08:22:56;;;;;;;16.10;11.80;;;4.10;99.90;;;;;;5075020;28;21030;-49
2023/03/08 08:25:25;;;;;;;20.87;13.40;;;4.00;99.90;;;;;;5074689;28;20507;-50
2023/03/08 08:27:52;;;;;;;19.80;13.43;;;4.00;99.90;;;;;;5075067;28;20483;-50
2023/03/08 08:30:19;;;;;;;17.67;12.37;;;4.10;99.90;;;;;;5074756;28;20840;-47
2023/03/08 08:32:46;;;;;;;22.30;13.03;;;4.30;99.90;;;;;;5074682;28;20475;-48
2023/03/08 08:35:13;;;;;;;18.20;12.77;;;4.40;99.90;;;;;;5074975;28;20523;-48
2023/03/08 08:37:40;;;;;;;14.07;11.53;;;4.50;99.90;;;;;;5074495;28;20504;-50
2023/03/08 08:40:09;;;;;;;15.50;11.00;;;4.40;99.90;;;;;;5074449;28;20499;-48
2023/03/08 08:42:37;;;;;;;16.20;11.70;;;4.60;99.90;;;;;;5074075;28;20444;-48
2023/03/08 08:45:05;;;;;;;16.83;11.10;;;4.70;99.90;;;;;;5074350;28;20531;-50
2023/03/08 08:47:32;;;;;;;21.00;12.77;;;4.80;99.90;;;;;;5074051;28;20527;-48
2023/03/08 08:49:58;;;;;;;20.10;13.33;;;4.80;99.90;;;;;;5074265;28;20476;-49
2023/03/08 08:52:25;;;;;;;18.63;12.47;;;4.90;99.90;;;;;;5074177;28;20535;-48
2023/03/08 08:54:52;;;;;;;17.90;11.47;;;5.10;99.90;;;;;;5074287;28;20523;-48
2023/03/08 08:57:19;;;;;;;17.90;12.20;;;5.00;99.90;;;;;;5074306;28;20511;-48
2023/03/08 08:59:48;;;;;;;20.23;13.27;;;5.10;99.90;;;;;;5073565;28;20530;-48
2023/03/08 09:02:15;;;;;;;19.83;14.00;;;5.20;99.90;;;;;;5074119;28;20523;-48
2023/03/08 09:04:42;;;;;;;20.10;12.60;;;5.20;99.90;;;;;;5060524;28;20848;-48
2023/03/08 09:07:08;;;;;;;17.03;12.93;;;5.30;99.90;;;;;;5054222;28;20496;-48
2023/03/08 09:09:35;;;;;;;20.13;12.27;;;5.30;99.90;;;;;;5053918;28;20540;-50
2023/03/08 09:12:02;;;;;;;17.53;11.67;;;5.40;99.90;;;;;;5053078;28;21035;-48
2023/03/08 09:14:29;;;;;;;16.57;12.20;;;5.60;99.90;;;;;;5053931;28;20489;-48
2023/03/08 09:16:57;;;;;;;19.03;11.03;;;5.80;99.90;;;;;;5053773;28;21041;-50
2023/03/08 09:19:24;;;;;;;16.40;11.40;;;5.90;99.90;;;;;;5053905;28;20516;-48
2023/03/08 09:21:52;;;;;;;16.80;11.07;;;5.90;99.90;;;;;;5053579;28;21004;-48
2023/03/08 09:24:18;;;;;;;18.07;11.20;;;5.90;99.90;;;;;;5053852;28;20446;-48
2023/03/08 09:26:45;;;;;;;20.03;13.10;;;5.90;99.90;;;;;;5053209;28;20540;-48
2023/03/08 09:29:12;;;;;;;16.67;10.30;;;6.00;99.90;;;;;;5053604;28;20434;-48
2023/03/08 09:31:41;;;;;;;15.33;10.93;;;6.10;99.90;;;;;;5053233;28;20579;-49
2023/03/08 09:34:13;;;;;;;22.30;13.33;;;6.20;99.90;;;;;;5053763;28;20859;-49
2023/03/08 09:36:41;;;;;;;18.80;15.00;;;5.90;99.90;;;;;;5053582;28;20469;-48
2023/03/08 09:39:10;;;;;;;16.53;12.80;;;5.90;99.90;;;;;;5053423;28;20911;-49
2023/03/08 09:41:50;;;;;;;17.57;13.13;;;6.20;99.90;;;;;;5052752;28;20489;-45
2023/03/08 09:44:44;;;;;;;19.60;12.57;;;6.30;99.90;;;;;;5051374;28;20450;-49
2023/03/08 09:47:20;;;;;;;13.93;11.73;;;6.10;99.90;;;;;;5052859;28;20498;-48
2023/03/08 09:49:52;;;;;;;18.07;11.97;;;6.20;99.90;;;;;;5053214;28;20825;-48
2023/03/08 09:52:29;;;;;;;16.10;11.40;;;6.30;99.90;;;;;;5053038;28;20689;-48
2023/03/08 09:54:58;;;;;;;20.10;14.27;;;6.00;99.90;;;;;;5053076;28;20452;-48
2023/03/08 09:57:29;;;;;;;16.03;12.17;;;6.10;99.90;;;;;;5052892;28;20548;-49
2023/03/08 09:59:58;;;;;;;15.90;11.67;;;6.30;99.90;;;;;;5052316;28;20537;-49
2023/03/08 10:02:34;;;;;;;17.97;10.97;;;6.50;99.90;;;;;;5052564;28;21011;-48
2023/03/08 10:05:11;;;;;;;15.73;12.23;;;6.60;99.90;;;;;;5052995;28;20448;-48
2023/03/08 10:07:49;;;;;;;17.20;12.50;;;6.50;99.90;;;;;;5053011;28;20927;-49
2023/03/08 10:10:30;;;;;;;14.60;11.13;;;6.70;99.90;;;;;;5050599;28;21101;-48
2023/03/08 10:13:18;;;;;;;19.80;12.67;;;6.60;99.90;;;;;;5032447;28;20949;-49
2023/03/08 10:15:51;;;;;;;15.77;11.97;;;6.70;99.90;;;;;;5032885;28;20541;-48
2023/03/08 10:18:24;;;;;;;17.80;12.60;;;6.70;99.90;;;;;;5032915;28;20480;-48
2023/03/08 10:20:53;;;;;;;14.80;12.80;;;6.40;99.90;;;;;;5032427;28;20953;-48
2023/03/08 10:23:22;;;;;;;13.13;11.70;;;6.60;99.90;;;;;;5032464;28;20486;-49
2023/03/08 10:25:50;;;;;;;16.10;12.70;;;6.60;99.90;;;;;;5032809;28;20545;-50
2023/03/08 10:28:19;;;;;;;22.90;14.00;;;6.60;99.90;;;;;;5032482;28;20474;-50
2023/03/08 10:30:48;;;;;;;18.13;13.03;;;6.70;99.90;;;;;;5032407;28;20879;-48
2023/03/08 10:33:18;;;;;;;18.00;11.93;;;6.80;99.90;;;;;;5032728;28;20470;-49
2023/03/08 10:35:57;;;;;;;16.90;13.50;;;6.80;99.90;;;;;;5033131;28;20463;-48
2023/03/08 10:38:26;;;;;;;17.07;11.97;;;6.80;99.90;;;;;;5031490;28;20478;-49
2023/03/08 10:41:00;;;;;;;17.37;11.93;;;7.00;99.90;;;;;;5032054;28;20525;-48
2023/03/08 10:43:30;;;;;;;20.67;13.87;;;7.00;99.90;;;;;;5032065;28;20532;-48
2023/03/08 10:46:03;;;;;;;17.03;12.07;;;7.00;99.90;;;;;;5032053;28;21232;-48
2023/03/08 10:48:30;;;;;;;13.27;10.93;;;7.00;99.90;;;;;;5031871;28;20488;-47
2023/03/08 10:51:04;;;;;;;18.97;12.13;;;7.10;99.90;;;;;;5031899;28;21007;-48
2023/03/08 10:53:32;;;;;;;17.03;13.50;;;7.20;99.90;;;;;;5031943;28;20530;-50
2023/03/08 10:56:01;;;;;;;22.50;14.00;;;7.30;99.90;;;;;;5031824;28;20921;-50
2023/03/08 10:58:34;;;;;;;17.10;12.97;;;7.20;99.90;;;;;;5031625;28;20585;-48
2023/03/08 11:01:04;;;;;;;16.50;12.80;;;7.00;99.90;;;;;;5031427;28;20454;-48
2023/03/08 11:03:31;;;;;;;17.10;12.57;;;7.00;99.90;;;;;;5032059;28;20474;-48
2023/03/08 11:06:01;;;;;;;17.53;12.50;;;7.10;99.90;;;;;;5031890;28;20545;-47
2023/03/08 11:08:31;;;;;;;16.90;13.37;;;7.00;99.90;;;;;;5031727;28;20470;-49
2023/03/08 11:11:07;;;;;;;18.83;12.90;;;7.20;99.90;;;;;;5031326;28;20513;-48
2023/03/08 11:13:36;;;;;;;19.33;13.03;;;7.30;99.90;;;;;;5031881;28;20446;-48
2023/03/08 11:16:22;;;;;;;18.97;13.30;;;7.40;99.90;;;;;;5031727;28;20549;-48
2023/03/08 11:18:57;;;;;;;17.50;12.47;;;7.30;99.90;;;;;;5031370;28;20593;-47
2023/03/08 11:21:32;;;;;;;18.77;13.20;;;7.30;99.90;;;;;;5031566;28;20509;-50
2023/03/08 11:24:12;;;;;;;17.43;13.17;;;7.50;99.90;;;;;;5031762;28;20883;-48
2023/03/08 11:26:46;;;;;;;17.47;13.20;;;7.50;99.90;;;;;;5031573;28;21052;-48
2023/03/08 11:29:25;;;;;;;16.07;12.17;;;7.40;99.90;;;;;;5031710;28;20791;-49
2023/03/08 11:32:01;;;;;;;18.63;13.00;;;7.50;99.90;;;;;;5044655;28;20438;-48
2023/03/08 11:34:54;;;;;;;19.63;13.00;;;7.60;99.90;;;;;;5049064;28;21007;-48
2023/03/08 11:37:31;;;;;;;19.00;13.47;;;7.50;99.90;;;;;;5050697;28;21003;-48
2023/03/08 11:40:05;;;;;;;18.90;13.60;;;7.60;99.90;;;;;;5050473;28;20505;-48
2023/03/08 11:42:44;;;;;;;20.07;13.07;;;7.60;99.90;;;;;;5050542;28;20433;-48
2023/03/08 11:45:20;;;;;;;16.70;13.17;;;7.70;99.90;;;;;;5049394;28;20528;-48
2023/03/08 11:48:25;;;;;;;20.00;13.87;;;7.70;99.90;;;;;;5048629;28;20457;-47
2023/03/08 11:50:56;;;;;;;17.77;12.70;;;7.70;99.90;;;;;;5046570;28;21003;-48
2023/03/08 11:53:33;;;;;;;15.50;11.43;;;7.80;99.90;;;;;;5049513;28;21004;-49
2023/03/08 11:56:25;;;;;;;20.90;14.10;;;7.70;99.90;;;;;;5050162;28;20504;-49
2023/03/08 11:58:56;;;;;;;19.23;14.17;;;7.90;99.90;;;;;;5050053;28;20473;-49
2023/03/08 12:01:27;;;;;;;17.10;12.37;;;7.90;99.90;;;;;;5035124;28;21032;-47
2023/03/08 12:03:58;;;;;;;18.27;12.57;;;8.00;99.90;;;;;;5046412;28;20519;-50
2023/03/08 12:06:30;;;;;;;19.70;13.10;;;8.10;99.90;;;;;;5030940;28;20505;-48
2023/03/08 12:09:06;;;;;;;18.50;12.97;;;8.10;99.90;;;;;;5041816;28;20528;-45
2023/03/08 12:11:38;;;;;;;23.30;15.00;;;8.30;99.90;;;;;;5042341;28;20454;-49
2023/03/08 12:14:15;;;;;;;19.37;13.23;;;8.20;99.90;;;;;;5045711;28;20484;-48
2023/03/08 12:16:48;;;;;;;22.20;14.40;;;8.20;99.90;;;;;;5045367;28;21019;-49
2023/03/08 12:19:27;;;;;;;15.70;12.60;;;8.10;99.90;;;;;;5046442;28;20508;-50
2023/03/08 12:22:02;;;;;;;16.20;13.40;;;8.30;99.90;;;;;;5046439;28;20532;-48
2023/03/08 12:24:44;;;;;;;19.43;13.23;;;8.50;99.90;;;;;;5041608;28;20448;-48
2023/03/08 12:27:17;;;;;;;18.43;14.03;;;8.50;99.90;;;;;;5050847;28;20501;-48
2023/03/08 12:29:49;;;;;;;19.57;14.73;;;8.50;99.90;;;;;;5050691;28;21019;-48
2023/03/08 12:32:17;;;;;;;16.80;12.53;;;8.80;99.90;;;;;;5050651;28;20524;-48
2023/03/08 12:34:45;;;;;;;16.50;12.00;;;8.80;99.90;;;;;;5050829;28;20465;-51
2023/03/08 12:37:21;;;;;;;18.47;12.90;;;8.80;99.90;;;;;;5041530;28;20510;-50
2023/03/08 12:40:03;;;;;;;17.47;12.90;;;8.90;99.90;;;;;;5042523;28;20559;-51
2023/03/08 12:42:33;;;;;;;18.63;13.40;;;8.90;99.90;;;;;;5047383;28;20492;-49
2023/03/08 12:45:08;;;;;;;20.10;14.17;;;9.00;99.90;;;;;;5042739;28;20478;-49
2023/03/08 12:47:35;;;;;;;14.47;12.33;;;9.30;99.90;;;;;;5047265;28;20468;-49